Time;durP1;ratioP1;P1;durP2;ratioP2;P2;SDS_P1;SDS_P2;PMS_P1;PMS_P2;Temp;Humidity;BMP_temperature;BMP_pressure;BME280_temperature;BME280_humidity;BME280_pressure;Samples;Min_cycle;Max_cycle;Signal;HPM_P1;HPM_P2
2022/12/04 00:00:11;;;;;;;19.75;6.93;;;;;;;3.47;79.89;101564.56;5000451;28;20042;-66
2022/12/04 00:02:37;;;;;;;21.52;7.00;;;;;;;3.45;79.53;101564.03;4996271;28;20145;-67
2022/12/04 00:05:04;;;;;;;12.95;5.20;;;;;;;3.43;79.61;101563.53;4996316;28;20042;-66
2022/12/04 00:07:30;;;;;;;14.85;6.53;;;;;;;3.36;79.51;101565.75;4990572;28;20027;-67
2022/12/04 00:09:55;;;;;;;12.23;5.65;;;;;;;3.38;79.89;101560.94;5004820;28;20041;-66
2022/12/04 00:12:21;;;;;;;19.23;7.00;;;;;;;3.53;79.45;101558.09;4988577;28;20038;-67
2022/12/04 00:14:47;;;;;;;18.10;6.82;;;;;;;3.39;79.69;101559.06;5009519;28;20129;-65
2022/12/04 00:17:12;;;;;;;13.65;6.03;;;;;;;3.52;79.26;101559.16;4992869;28;20038;-65
2022/12/04 00:19:38;;;;;;;15.18;6.82;;;;;;;3.51;79.70;101552.25;4986350;28;20115;-66
2022/12/04 00:22:03;;;;;;;13.50;5.28;;;;;;;3.42;79.62;101559.31;4988029;28;20034;-66
2022/12/04 00:24:29;;;;;;;17.15;5.35;;;;;;;3.49;79.70;101554.41;4987410;28;20037;-66
2022/12/04 00:26:55;;;;;;;17.35;7.63;;;;;;;3.56;79.38;101551.41;5005373;28;20026;-66
2022/12/04 00:29:20;;;;;;;17.95;6.38;;;;;;;3.58;78.96;101550.03;4981141;28;20078;-66
2022/12/04 00:31:46;;;;;;;13.48;4.88;;;;;;;3.70;78.24;101551.50;4988690;28;20062;-66
2022/12/04 00:34:11;;;;;;;14.10;6.15;;;;;;;3.58;78.86;101555.34;4988286;28;20042;-66
2022/12/04 00:36:37;;;;;;;17.52;6.90;;;;;;;3.55;78.94;101550.63;4988662;28;20059;-65
2022/12/04 00:39:03;;;;;;;13.40;5.95;;;;;;;3.54;79.13;101551.69;4988162;28;20077;-66
2022/12/04 00:41:31;;;;;;;19.67;6.45;;;;;;;3.42;79.32;101538.00;4984989;28;20557;-66
2022/12/04 00:43:57;;;;;;;12.32;4.93;;;;;;;3.50;79.08;101545.34;4999951;28;20041;-67
2022/12/04 00:46:23;;;;;;;13.10;6.15;;;;;;;3.47;79.65;101540.59;4987640;28;20049;-67
2022/12/04 00:48:49;;;;;;;16.70;6.15;;;;;;;3.48;79.61;101542.16;4994330;28;20027;-65
2022/12/04 00:51:25;;;;;;;12.18;5.07;;;;;;;3.47;79.59;101537.94;4992017;28;20423;-65
2022/12/04 00:53:51;;;;;;;13.07;6.32;;;;;;;3.54;79.63;101535.69;4997437;28;20101;-65
2022/12/04 00:56:18;;;;;;;12.77;6.03;;;;;;;3.53;79.71;101539.47;4987287;28;20132;-65
2022/12/04 00:58:43;;;;;;;15.20;6.90;;;;;;;3.52;80.00;101540.53;4986461;28;20482;-65
2022/12/04 01:01:14;;;;;;;19.20;6.25;;;;;;;3.54;79.49;101537.59;4996140;28;20125;-66
2022/12/04 01:03:40;;;;;;;14.95;5.63;;;;;;;3.54;79.60;101538.38;4985848;28;20043;-65
2022/12/04 01:06:06;;;;;;;15.23;5.65;;;;;;;3.51;79.40;101532.81;5000368;28;20490;-66
2022/12/04 01:08:32;;;;;;;14.95;6.78;;;;;;;3.50;79.95;101534.69;4989834;28;20080;-65
2022/12/04 01:10:58;;;;;;;15.18;5.57;;;;;;;3.51;79.72;101532.81;4992667;28;20042;-65
2022/12/04 01:13:25;;;;;;;10.48;5.53;;;;;;;3.56;79.70;101536.22;4979779;28;20038;-65
2022/12/04 01:15:50;;;;;;;15.13;5.70;;;;;;;3.60;79.75;101547.09;5002781;28;20398;-65
2022/12/04 01:18:16;;;;;;;17.70;6.95;;;;;;;3.58;79.60;101538.63;4990594;28;20030;-66
2022/12/04 01:20:50;;;;;;;16.67;6.07;;;;;;;3.60;80.14;101531.13;4990416;28;20034;-65
2022/12/04 01:23:18;;;;;;;19.65;5.68;;;;;;;3.51;80.26;101541.63;4998022;28;20440;-66
2022/12/04 01:26:10;;;;;;;15.43;4.93;;;;;;;3.71;79.34;101531.78;5002410;28;20070;-65
2022/12/04 01:28:36;;;;;;;14.98;4.85;;;;;;;3.52;79.88;101535.19;4983323;28;20042;-64
2022/12/04 01:31:11;;;;;;;16.52;5.45;;;;;;;3.61;79.80;101540.69;4986505;28;20083;-66
2022/12/04 01:33:38;;;;;;;15.15;6.10;;;;;;;3.57;80.38;101542.34;4989980;28;20113;-66
2022/12/04 01:36:06;;;;;;;19.77;5.75;;;;;;;3.49;80.70;101535.78;4987452;28;20061;-65
2022/12/04 01:38:33;;;;;;;14.95;7.03;;;;;;;3.52;81.07;101540.53;4987362;28;20045;-65
2022/12/04 01:41:02;;;;;;;19.35;7.07;;;;;;;3.58;80.69;101539.38;4989581;28;20581;-66
2022/12/04 01:43:32;;;;;;;13.10;5.90;;;;;;;3.66;80.49;101538.75;5002818;28;20121;-64
2022/12/04 01:45:59;;;;;;;18.27;5.93;;;;;;;3.60;80.76;101531.91;4990082;28;20038;-64
2022/12/04 01:48:30;;;;;;;15.23;5.75;;;;;;;3.60;80.66;101537.22;4984026;28;20034;-66
2022/12/04 01:51:11;;;;;;;13.90;4.97;;;;;;;3.49;81.34;101529.66;4982027;28;20043;-65
2022/12/04 01:53:41;;;;;;;14.95;5.70;;;;;;;3.44;81.32;101527.88;4997135;28;20066;-66
2022/12/04 01:56:06;;;;;;;15.20;5.18;;;;;;;3.45;81.22;101531.31;4989420;28;20054;-65
2022/12/04 01:58:37;;;;;;;15.25;5.45;;;;;;;3.37;81.96;101524.75;4997315;28;20528;-65
2022/12/04 02:01:04;;;;;;;;;;;;;;;3.49;81.26;101530.47;5005852;28;20415;-66
2022/12/04 02:03:29;;;;;;;13.02;5.15;;;;;;;3.52;81.41;101535.19;4998170;28;19918;-65
2022/12/04 02:05:55;;;;;;;23.95;8.23;;;;;;;3.58;81.63;101541.28;4997345;28;20033;-65
2022/12/04 02:08:21;;;;;;;18.52;6.93;;;;;;;3.51;81.97;101533.63;4995946;28;20045;-65
2022/12/04 02:11:01;;;;;;;13.15;5.00;;;;;;;3.47;82.23;101527.28;4995826;28;20435;-65
2022/12/04 02:13:48;;;;;;;13.43;5.47;;;;;;;3.59;81.22;101535.66;5010837;28;20099;-65
2022/12/04 02:16:34;;;;;;;15.48;6.07;;;;;;;3.51;81.64;101530.97;4989114;28;20074;-65
2022/12/04 02:19:17;;;;;;;13.77;6.28;;;;;;;3.58;81.35;101528.72;4991377;28;20098;-65
2022/12/04 02:21:47;;;;;;;14.43;5.10;;;;;;;3.34;82.31;101525.31;4995343;28;20042;-65
2022/12/04 02:24:48;;;;;;;15.20;6.43;;;;;;;3.31;82.57;101517.91;4988212;28;20066;-65
2022/12/04 02:27:38;;;;;;;18.73;6.05;;;;;;;3.16;83.55;101512.75;5004516;28;20488;-65
2022/12/04 02:30:22;;;;;;;11.85;5.40;;;;;;;3.32;83.40;101511.50;4988554;28;20525;-65
2022/12/04 02:33:00;;;;;;;13.23;5.97;;;;;;;3.41;83.19;101515.13;4997261;28;20049;-65
2022/12/04 02:35:37;;;;;;;17.55;6.53;;;;;;;3.48;83.00;101514.78;5001958;28;20046;-64
2022/12/04 02:38:20;;;;;;;18.60;6.65;;;;;;;3.54;82.84;101510.97;4996235;28;20176;-65
2022/12/04 02:41:12;;;;;;;15.00;5.15;;;;;;;3.56;82.65;101509.59;4996420;28;20521;-65
2022/12/04 02:43:49;;;;;;;13.98;6.13;;;;;;;3.60;82.41;101505.28;4978740;28;20043;-65
2022/12/04 02:46:25;;;;;;;11.73;5.85;;;;;;;3.64;82.36;101508.94;5000226;28;20034;-65
2022/12/04 02:48:54;;;;;;;13.77;5.45;;;;;;;3.62;82.59;101508.44;4973803;28;20053;-65
2022/12/04 02:51:24;;;;;;;20.40;7.43;;;;;;;3.57;82.43;101505.06;4998639;28;20039;-65
2022/12/04 02:53:55;;;;;;;16.25;5.88;;;;;;;3.44;83.04;101511.91;4993591;28;20034;-65
2022/12/04 02:56:36;;;;;;;18.92;5.55;;;;;;;3.52;82.75;101510.47;4992166;28;20080;-65
2022/12/04 02:59:08;;;;;;;14.33;6.57;;;;;;;3.56;82.65;101514.16;4994236;28;20088;-65
2022/12/04 03:01:38;;;;;;;13.50;6.28;;;;;;;3.60;82.83;101505.28;4991444;28;20393;-65
2022/12/04 03:04:26;;;;;;;16.85;7.53;;;;;;;3.57;82.79;101516.50;4989059;28;20035;-65
2022/12/04 03:06:58;;;;;;;18.30;5.30;;;;;;;3.63;82.81;101507.38;4991740;28;20419;-65
2022/12/04 03:09:41;;;;;;;15.13;6.68;;;;;;;3.66;82.67;101511.31;4991164;28;20034;-65
2022/12/04 03:12:14;;;;;;;16.65;7.72;;;;;;;3.50;82.79;101520.59;4986788;28;20027;-65
2022/12/04 03:15:13;;;;;;;13.55;5.93;;;;;;;3.50;82.96;101513.38;4984439;28;20384;-65
2022/12/04 03:17:52;;;;;;;21.83;6.85;;;;;;;3.59;83.39;101514.34;4989218;28;20191;-65
2022/12/04 03:20:20;;;;;;;13.48;6.63;;;;;;;3.77;82.10;101519.97;4988817;28;20062;-65
2022/12/04 03:22:50;;;;;;;16.30;5.72;;;;;;;3.76;82.25;101513.84;4991201;28;20030;-65
2022/12/04 03:25:16;;;;;;;18.25;6.28;;;;;;;3.70;82.62;101519.56;4992284;28;20058;-65
2022/12/04 03:27:47;;;;;;;17.63;6.82;;;;;;;3.66;83.04;101517.44;4991331;28;20042;-64
2022/12/04 03:30:17;;;;;;;7.10;3.60;;;;;;;3.64;82.98;101511.63;4991735;28;20034;-65
2022/12/04 03:32:49;;;;;;;15.68;6.60;;;;;;;3.67;82.96;101505.72;4991978;28;20030;-66
2022/12/04 03:35:28;;;;;;;25.73;6.53;;;;;;;3.65;82.89;101509.75;4998723;28;20034;-66
2022/12/04 03:38:18;;;;;;;17.63;7.13;;;;;;;3.61;83.09;101506.88;4988410;28;20049;-65
2022/12/04 03:40:52;;;;;;;20.63;7.07;;;;;;;3.55;83.53;101504.56;4991678;28;20644;-65
2022/12/04 03:43:27;;;;;;;18.20;6.35;;;;;;;3.51;83.93;101509.66;4989579;28;20080;-65
2022/12/04 03:46:02;;;;;;;19.77;7.68;;;;;;;3.54;83.84;101501.09;4987077;28;20062;-66
2022/12/04 03:48:49;;;;;;;24.15;7.82;;;;;;;3.61;83.56;101501.56;4990675;28;20042;-66
2022/12/04 03:51:38;;;;;;;19.42;7.65;;;;;;;3.74;83.38;101494.69;4967397;28;20045;-65
2022/12/04 03:54:10;;;;;;;18.83;7.65;;;;;;;3.70;83.46;101496.34;4985019;28;20088;-65
2022/12/04 03:56:48;;;;;;;11.48;6.10;;;;;;;3.62;83.38;101502.31;4991388;28;20045;-65
2022/12/04 03:59:19;;;;;;;17.48;6.35;;;;;;;3.62;83.97;101508.44;5007117;28;20066;-66
2022/12/04 04:01:48;;;;;;;18.13;7.18;;;;;;;3.66;83.95;101498.81;4984178;28;20042;-65
2022/12/04 04:04:19;;;;;;;21.52;6.72;;;;;;;3.68;83.86;101501.19;4973553;28;20491;-65
2022/12/04 04:06:51;;;;;;;15.77;6.65;;;;;;;3.73;83.70;101500.31;4991959;28;20030;-65
2022/12/04 04:09:22;;;;;;;11.77;5.55;;;;;;;3.73;83.85;101498.47;4987340;28;20044;-66
2022/12/04 04:11:54;;;;;;;16.60;5.90;;;;;;;3.80;83.44;101500.75;5004183;28;20085;-65
2022/12/04 04:25:46;;;;;;;15.93;5.20;;;;;;;3.65;83.61;101491.91;4990315;28;20093;-65
2022/12/04 04:28:35;;;;;;;13.98;6.28;;;;;;;3.81;83.25;101499.69;4990285;28;20035;-65
2022/12/04 04:31:25;;;;;;;12.90;5.65;;;;;;;3.88;82.91;101495.56;4985812;28;20133;-65
2022/12/04 04:34:25;;;;;;;17.27;6.22;;;;;;;3.79;83.14;101501.84;4983759;28;20042;-65
2022/12/04 04:36:50;;;;;;;22.15;6.75;;;;;;;3.82;83.44;101499.38;4980777;28;20757;-65
2022/12/04 04:39:33;;;;;;;24.35;5.90;;;;;;;3.82;83.45;101502.06;4990612;28;20037;-66
2022/12/04 04:42:13;;;;;;;22.75;5.63;;;;;;;3.80;83.25;101498.88;4987969;28;20192;-65
2022/12/04 04:44:53;;;;;;;11.80;5.10;;;;;;;3.78;83.56;101497.56;4989097;28;20042;-65
2022/12/04 04:48:07;;;;;;;16.17;5.53;;;;;;;3.83;83.55;101505.50;4984653;28;20622;-65
2022/12/04 04:50:34;;;;;;;13.93;5.75;;;;;;;3.77;83.76;101493.34;4983995;28;20060;-65
2022/12/04 04:53:08;;;;;;;15.32;5.47;;;;;;;3.76;84.16;101497.06;4986726;28;20089;-65
2022/12/04 04:55:35;;;;;;;15.00;6.43;;;;;;;3.68;83.93;101501.19;4991288;28;20635;-65
2022/12/04 04:58:12;;;;;;;13.05;5.28;;;;;;;3.65;84.42;101501.75;4990852;28;20460;-64
2022/12/04 05:00:40;;;;;;;12.88;5.57;;;;;;;3.79;84.08;101507.97;4989004;28;20042;-65
2022/12/04 05:03:05;;;;;;;11.40;6.45;;;;;;;3.75;84.18;101503.50;4984880;28;20377;-65
2022/12/04 05:05:31;;;;;;;16.27;5.70;;;;;;;3.80;84.28;101498.09;4988368;28;20040;-65
2022/12/04 05:07:56;;;;;;;18.27;6.72;;;;;;;3.83;84.00;101503.66;4989960;28;20531;-65
2022/12/04 05:10:22;;;;;;;10.13;5.35;;;;;;;3.88;84.04;101508.09;4988943;28;20034;-65
2022/12/04 05:12:51;;;;;;;13.25;5.45;;;;;;;3.87;84.02;101507.28;4984967;28;20117;-65
2022/12/04 05:15:16;;;;;;;13.27;5.63;;;;;;;3.90;83.63;101503.28;4998315;28;20029;-66
2022/12/04 05:17:42;;;;;;;19.90;6.55;;;;;;;3.88;83.61;101510.75;4989726;28;20045;-66
2022/12/04 05:20:08;;;;;;;11.70;4.88;;;;;;;3.76;84.22;101510.38;4989833;28;20513;-65
2022/12/04 05:22:35;;;;;;;13.18;6.60;;;;;;;3.84;84.10;101504.41;5001864;28;20031;-65
2022/12/04 05:25:01;;;;;;;19.25;6.53;;;;;;;3.87;83.98;101511.84;4990652;28;20046;-66
2022/12/04 05:27:28;;;;;;;18.35;6.57;;;;;;;3.84;83.93;101509.75;4990744;28;20176;-65
2022/12/04 05:29:56;;;;;;;17.20;5.55;;;;;;;3.87;84.22;101515.28;4990684;28;20034;-65
2022/12/04 05:32:23;;;;;;;13.48;5.78;;;;;;;3.83;84.17;101514.31;4990245;28;20087;-65
2022/12/04 05:34:50;;;;;;;22.27;7.47;;;;;;;3.85;84.45;101509.47;4988456;28;20117;-65
2022/12/04 05:37:16;;;;;;;18.50;5.20;;;;;;;3.82;84.49;101506.56;4990937;28;20031;-65
2022/12/04 05:39:42;;;;;;;20.77;5.88;;;;;;;3.83;84.37;101506.31;4984932;28;20061;-65
2022/12/04 05:42:07;;;;;;;17.70;6.35;;;;;;;3.88;84.50;101510.75;4994027;28;20030;-66
2022/12/04 05:44:33;;;;;;;11.98;5.82;;;;;;;3.83;84.11;101508.97;4996293;28;20104;-65
2022/12/04 05:46:58;;;;;;;18.95;7.03;;;;;;;3.92;84.25;101495.78;4993951;28;20101;-65
2022/12/04 05:49:24;;;;;;;14.15;5.72;;;;;;;3.83;84.77;101497.53;4996051;28;20384;-65
2022/12/04 05:51:50;;;;;;;11.52;5.28;;;;;;;3.83;84.66;101500.97;5011211;28;20026;-66
2022/12/04 05:54:17;;;;;;;11.55;5.60;;;;;;;3.85;84.55;101506.00;4990784;28;20057;-65
2022/12/04 05:56:43;;;;;;;13.52;6.15;;;;;;;3.87;84.65;101509.19;4992440;28;20046;-65
2022/12/04 05:59:08;;;;;;;24.17;6.93;;;;;;;3.93;84.44;101505.38;5009454;28;20049;-65
2022/12/04 06:01:34;;;;;;;18.98;7.28;;;;;;;3.94;84.37;101497.09;4992732;28;20038;-65
2022/12/04 06:03:59;;;;;;;17.08;6.22;;;;;;;3.90;84.35;101500.59;4993143;28;20026;-65
2022/12/04 06:06:28;;;;;;;15.63;5.53;;;;;;;3.92;84.43;101493.91;4994527;28;20414;-65
2022/12/04 06:08:58;;;;;;;13.27;5.00;;;;;;;3.91;84.50;101494.22;5008595;28;20126;-65
2022/12/04 06:11:30;;;;;;;11.18;5.03;;;;;;;3.80;85.15;101495.41;4993297;28;20038;-65
2022/12/04 06:13:57;;;;;;;17.77;5.72;;;;;;;3.83;85.04;101500.19;5008180;28;20058;-66
2022/12/04 06:16:26;;;;;;;15.40;7.57;;;;;;;3.86;85.05;101499.59;4991436;28;20435;-66
2022/12/04 06:18:54;;;;;;;15.00;5.90;;;;;;;3.79;85.31;101504.50;4993918;28;20084;-66
2022/12/04 06:21:21;;;;;;;19.30;6.43;;;;;;;3.82;85.54;101514.56;4994020;28;20134;-65
2022/12/04 06:23:46;;;;;;;14.95;5.30;;;;;;;3.85;85.64;101508.69;4990649;28;20066;-66
2022/12/04 06:26:12;;;;;;;16.90;6.35;;;;;;;3.99;84.90;101506.88;4994255;28;20162;-66
2022/12/04 06:28:37;;;;;;;15.48;5.53;;;;;;;3.90;85.21;101503.28;4992572;28;20031;-65
2022/12/04 06:31:09;;;;;;;12.48;6.15;;;;;;;3.82;85.09;101512.69;4991922;28;20574;-64
2022/12/04 06:33:35;;;;;;;19.88;6.57;;;;;;;3.89;85.55;101515.03;5008865;28;20061;-64
2022/12/04 06:36:10;;;;;;;15.20;6.95;;;;;;;3.89;85.30;101515.78;4998647;28;20442;-65
2022/12/04 06:38:36;;;;;;;10.18;5.03;;;;;;;3.76;85.36;101516.50;4985696;28;20038;-64
2022/12/04 06:41:04;;;;;;;17.83;5.50;;;;;;;3.78;86.11;101511.69;4989478;28;20053;-64
2022/12/04 06:43:29;;;;;;;21.80;7.90;;;;;;;3.90;85.67;101516.59;4992862;28;20062;-65
2022/12/04 06:46:07;;;;;;;11.75;5.30;;;;;;;3.92;85.79;101509.09;5008220;28;20073;-65
2022/12/04 06:48:33;;;;;;;13.02;5.40;;;;;;;3.97;85.43;101511.72;5003362;23;20456;-65
2022/12/04 06:51:03;;;;;;;15.50;7.05;;;;;;;4.01;84.90;101510.81;5011366;28;20042;-64
2022/12/04 06:53:32;;;;;;;12.48;5.93;;;;;;;3.94;85.17;101525.59;5007101;28;20026;-64
2022/12/04 06:56:04;;;;;;;15.48;6.53;;;;;;;3.91;85.12;101521.63;5010866;28;20381;-65
2022/12/04 06:58:30;;;;;;;8.40;4.85;;;;;;;3.92;85.64;101522.41;4996279;28;20784;-65
2022/12/04 07:00:56;;;;;;;9.95;4.43;;;;;;;3.85;85.75;101527.31;4991843;28;20053;-64
2022/12/04 07:03:23;;;;;;;18.35;6.72;;;;;;;3.84;85.89;101521.19;4988553;28;20046;-66
2022/12/04 07:05:49;;;;;;;15.52;7.00;;;;;;;3.85;86.32;101522.00;5001761;28;20114;-65
2022/12/04 07:08:15;;;;;;;20.83;6.60;;;;;;;3.86;86.00;101524.38;4986722;28;20038;-65
2022/12/04 07:10:41;;;;;;;13.13;5.85;;;;;;;3.90;86.25;101512.06;4989731;28;20049;-65
2022/12/04 07:13:07;;;;;;;29.88;6.95;;;;;;;3.79;86.47;101513.28;4985416;28;20423;-65
2022/12/04 07:15:35;;;;;;;13.15;6.10;;;;;;;3.92;86.64;101517.09;4987754;28;20034;-65
2022/12/04 07:18:00;;;;;;;18.65;7.55;;;;;;;3.95;86.53;101514.63;4985372;28;20057;-65
2022/12/04 07:20:26;;;;;;;14.48;5.68;;;;;;;3.85;86.72;101520.13;4983629;28;20540;-64
2022/12/04 07:22:51;;;;;;;12.95;5.93;;;;;;;3.92;86.29;101523.22;4988028;28;20045;-65
2022/12/04 07:25:17;;;;;;;15.90;6.05;;;;;;;4.01;86.04;101531.34;5001307;28;20037;-64
2022/12/04 07:27:43;;;;;;;12.50;5.40;;;;;;;4.01;86.07;101518.81;4986389;28;20042;-65
2022/12/04 07:30:09;;;;;;;20.40;6.35;;;;;;;3.96;85.98;101521.56;4981883;28;20038;-65
2022/12/04 07:32:35;;;;;;;24.73;6.60;;;;;;;4.00;86.64;101519.09;4985905;28;20084;-64
2022/12/04 07:35:01;;;;;;;15.80;6.00;;;;;;;4.09;86.02;101530.69;5001722;28;20126;-64
2022/12/04 07:37:26;;;;;;;18.15;5.97;;;;;;;4.15;86.18;101526.88;4991349;28;20055;-65
2022/12/04 07:39:51;;;;;;;19.15;7.60;;;;;;;4.22;85.25;101529.97;4992032;28;20169;-64
2022/12/04 07:42:18;;;;;;;19.83;7.68;;;;;;;4.11;85.91;101541.84;4987571;28;20034;-65
2022/12/04 07:44:43;;;;;;;23.90;7.43;;;;;;;4.15;85.74;101533.00;4991439;28;20109;-65
2022/12/04 07:47:09;;;;;;;16.13;6.72;;;;;;;4.08;85.58;101535.25;4988023;28;20144;-65
2022/12/04 07:49:34;;;;;;;23.85;7.80;;;;;;;4.04;85.82;101520.13;4985510;28;20041;-65
2022/12/04 07:52:00;;;;;;;14.48;6.07;;;;;;;4.03;86.32;101531.84;4989776;28;20034;-65
2022/12/04 07:54:25;;;;;;;20.75;6.05;;;;;;;4.02;86.48;101544.41;4991730;28;20065;-65
2022/12/04 07:56:51;;;;;;;21.70;7.05;;;;;;;4.06;86.40;101539.28;4991550;28;20038;-65
2022/12/04 07:59:16;;;;;;;17.70;7.35;;;;;;;4.08;86.33;101537.13;4990651;28;20037;-66
2022/12/04 08:01:41;;;;;;;15.05;5.38;;;;;;;4.15;86.18;101537.53;4991881;28;20026;-64
2022/12/04 08:04:10;;;;;;;19.55;7.30;;;;;;;4.11;86.20;101542.66;4988150;28;20097;-64
2022/12/04 08:06:36;;;;;;;21.02;7.18;;;;;;;4.24;85.99;101538.47;4992720;28;20048;-64
2022/12/04 08:09:03;;;;;;;13.90;7.40;;;;;;;4.18;86.53;101537.75;4991498;28;20034;-64
2022/12/04 08:11:29;;;;;;;22.25;6.75;;;;;;;4.22;86.12;101536.06;4981078;28;20517;-65
2022/12/04 08:14:00;;;;;;;15.27;6.35;;;;;;;4.20;86.35;101535.56;4973535;28;20026;-65
2022/12/04 08:16:27;;;;;;;18.88;6.78;;;;;;;4.16;86.33;101537.22;4991734;28;20438;-65
2022/12/04 08:18:53;;;;;;;15.00;5.78;;;;;;;4.22;86.47;101541.41;4991366;28;20462;-65
2022/12/04 08:21:22;;;;;;;17.15;6.95;;;;;;;4.26;86.02;101549.59;4989591;28;20030;-64
2022/12/04 08:23:49;;;;;;;18.92;7.60;;;;;;;4.28;86.40;101547.44;4991536;28;20045;-65
2022/12/04 08:26:16;;;;;;;21.10;7.03;;;;;;;4.35;85.26;101545.22;4991708;28;20081;-65
2022/12/04 08:28:41;;;;;;;27.83;6.32;;;;;;;4.23;85.98;101544.88;4987726;28;20061;-65
2022/12/04 08:31:13;;;;;;;22.17;8.55;;;;;;;4.24;85.81;101543.81;4985659;28;20058;-64
2022/12/04 08:33:39;;;;;;;14.57;5.35;;;;;;;4.13;86.47;101539.69;4990098;28;20395;-64
2022/12/04 08:36:06;;;;;;;20.38;6.07;;;;;;;4.37;85.83;101551.06;4991233;28;20172;-64
2022/12/04 08:38:32;;;;;;;18.00;7.78;;;;;;;4.21;86.17;101537.16;4990396;28;20391;-65
2022/12/04 08:40:59;;;;;;;18.50;7.47;;;;;;;4.25;86.36;101535.50;4989656;28;20030;-65
2022/12/04 08:43:24;;;;;;;14.40;6.75;;;;;;;4.16;86.65;101536.47;4987123;28;20509;-65
2022/12/04 08:45:58;;;;;;;13.52;6.05;;;;;;;4.22;86.57;101525.41;4985229;28;20125;-65
2022/12/04 08:48:23;;;;;;;18.73;5.97;;;;;;;4.26;86.57;101530.94;4986758;28;20030;-64
2022/12/04 08:50:49;;;;;;;17.63;5.47;;;;;;;4.29;86.23;101528.53;4987639;28;20100;-64
2022/12/04 08:53:15;;;;;;;20.60;6.03;;;;;;;4.15;86.38;101533.00;5004723;28;20065;-65
2022/12/04 08:55:40;;;;;;;13.38;6.50;;;;;;;4.30;86.74;101523.97;4990625;28;20034;-65
2022/12/04 08:58:06;;;;;;;14.93;6.75;;;;;;;4.32;86.79;101532.47;4985720;28;20042;-65
2022/12/04 09:00:31;;;;;;;15.52;6.05;;;;;;;4.38;86.44;101525.97;4988090;28;20045;-65
2022/12/04 09:02:57;;;;;;;13.40;6.30;;;;;;;4.45;86.28;101540.50;4989438;28;20502;-65
2022/12/04 09:05:22;;;;;;;17.27;6.38;;;;;;;4.36;86.37;101525.47;4990541;28;20046;-65
2022/12/04 09:07:48;;;;;;;16.48;5.90;;;;;;;4.32;86.81;101530.59;4993801;28;20041;-65
2022/12/04 09:10:13;;;;;;;14.18;6.63;;;;;;;4.42;86.52;101537.63;4987030;28;20039;-65
2022/12/04 09:12:39;;;;;;;20.15;5.90;;;;;;;4.36;86.66;101534.25;4989773;28;20586;-65
2022/12/04 09:15:05;;;;;;;15.63;7.25;;;;;;;4.44;86.71;101532.81;5004148;28;20037;-65
2022/12/04 09:17:30;;;;;;;24.15;7.38;;;;;;;4.41;86.43;101531.50;4993960;28;20164;-65
2022/12/04 09:19:56;;;;;;;14.35;5.25;;;;;;;4.41;86.80;101530.72;4994959;28;20526;-66
2022/12/04 09:22:21;;;;;;;16.02;6.28;;;;;;;4.50;86.53;101523.63;4990801;28;20423;-65
2022/12/04 09:24:47;;;;;;;11.95;5.22;;;;;;;4.61;86.51;101534.94;4993098;28;20418;-65
2022/12/04 09:27:12;;;;;;;16.95;6.55;;;;;;;4.61;86.09;101534.94;4993325;28;20038;-65
2022/12/04 09:29:38;;;;;;;17.10;6.90;;;;;;;4.61;86.39;101534.94;4992645;28;20414;-65
2022/12/04 09:32:03;;;;;;;12.85;4.78;;;;;;;4.59;86.15;101527.22;4989966;28;20022;-66
2022/12/04 09:34:29;;;;;;;16.05;6.13;;;;;;;4.72;86.39;101531.81;4989910;28;20117;-65
2022/12/04 09:36:54;;;;;;;14.30;6.43;;;;;;;4.68;86.23;101530.00;4988989;28;20069;-65
2022/12/04 09:39:22;;;;;;;14.82;5.82;;;;;;;4.66;86.34;101538.31;4990463;28;20074;-65
2022/12/04 09:41:59;;;;;;;19.92;6.45;;;;;;;4.71;86.05;101522.19;4991984;28;20045;-65
2022/12/04 09:44:38;;;;;;;22.23;7.28;;;;;;;4.67;86.65;101525.75;4993334;28;20046;-64
2022/12/04 09:47:25;;;;;;;19.90;6.65;;;;;;;4.75;86.24;101517.88;4996882;28;20646;-64
2022/12/04 09:50:16;;;;;;;16.95;5.72;;;;;;;4.82;86.10;101523.59;4998970;28;20023;-66
2022/12/04 09:53:00;;;;;;;16.17;6.32;;;;;;;4.83;85.63;101514.53;4992631;28;20113;-66
2022/12/04 09:56:02;;;;;;;17.08;7.03;;;;;;;4.71;86.50;101514.19;4991758;28;20042;-66
2022/12/04 09:58:39;;;;;;;14.68;5.65;;;;;;;4.70;86.97;101509.16;4978248;28;20034;-66
2022/12/04 10:01:15;;;;;;;13.25;7.15;;;;;;;4.76;86.38;101511.47;5008215;28;20549;-66
2022/12/04 10:03:41;;;;;;;15.30;5.88;;;;;;;4.91;86.49;101503.19;4989046;28;20055;-66
2022/12/04 10:06:20;;;;;;;13.20;5.90;;;;;;;4.95;86.07;101503.38;4988624;28;20461;-66
2022/12/04 10:08:52;;;;;;;18.67;6.88;;;;;;;4.95;85.83;101501.50;4988631;28;20050;-66
2022/12/04 10:11:29;;;;;;;22.55;7.20;;;;;;;4.98;85.76;101506.22;4989124;28;20648;-66
2022/12/04 10:14:17;;;;;;;12.13;6.57;;;;;;;5.08;85.88;101507.91;4992301;28;20439;-66
2022/12/04 10:16:52;;;;;;;16.05;6.22;;;;;;;5.08;86.26;101507.91;5001907;28;20026;-65
2022/12/04 10:19:38;;;;;;;16.85;5.72;;;;;;;5.10;85.44;101513.75;4989771;28;20464;-65
2022/12/04 10:22:16;;;;;;;16.35;5.80;;;;;;;5.08;86.03;101508.72;4989184;28;20463;-66
2022/12/04 10:25:10;;;;;;;12.15;5.53;;;;;;;5.05;85.41;101503.94;4988191;28;20517;-65
2022/12/04 10:28:11;;;;;;;12.65;5.70;;;;;;;5.00;85.88;101500.59;4970675;28;20050;-66
2022/12/04 10:30:41;;;;;;;11.40;4.45;;;;;;;5.07;85.51;101503.69;4978997;28;20049;-66
2022/12/04 10:33:22;;;;;;;17.65;7.03;;;;;;;5.07;85.49;101499.09;5006795;28;20026;-66
2022/12/04 10:35:51;;;;;;;15.38;6.00;;;;;;;5.14;85.61;101502.19;4986795;28;20046;-67
2022/12/04 10:38:19;;;;;;;16.77;6.80;;;;;;;5.26;85.68;101499.03;4983977;28;20449;-66
2022/12/04 10:40:56;;;;;;;13.32;6.55;;;;;;;5.29;85.16;101491.19;4995397;28;20081;-66
2022/12/04 10:43:47;;;;;;;14.13;6.13;;;;;;;5.27;85.40;101496.03;4983789;28;20030;-66
2022/12/04 10:46:23;;;;;;;13.15;6.65;;;;;;;5.27;85.49;101488.03;4981101;28;20121;-65
2022/12/04 10:48:54;;;;;;;16.35;5.22;;;;;;;5.15;85.86;101487.75;5000939;28;20044;-66
2022/12/04 10:51:21;;;;;;;10.80;5.68;;;;;;;5.15;85.13;101489.63;4982247;28;20046;-66
2022/12/04 10:53:48;;;;;;;11.32;5.25;;;;;;;5.16;85.55;101489.34;4979274;28;20054;-66
2022/12/04 10:56:21;;;;;;;17.55;5.57;;;;;;;5.14;86.19;101486.19;4974835;28;20053;-69
2022/12/04 10:59:04;;;;;;;12.48;5.75;;;;;;;5.18;85.93;101494.38;4977679;28;20057;-66
2022/12/04 11:01:34;;;;;;;12.75;5.07;;;;;;;5.19;86.23;101488.72;4994476;28;20597;-65
2022/12/04 11:04:06;;;;;;;11.02;5.45;;;;;;;5.23;85.50;101484.38;4978110;28;20118;-66
2022/12/04 11:06:32;;;;;;;14.75;5.82;;;;;;;5.28;86.05;101481.59;4987014;28;20030;-65
2022/12/04 11:08:59;;;;;;;11.18;5.40;;;;;;;5.29;85.67;101488.53;4984196;28;20049;-66
2022/12/04 11:11:31;;;;;;;15.27;5.65;;;;;;;5.35;85.79;101487.34;4990355;28;20092;-65
2022/12/04 11:14:05;;;;;;;11.35;5.20;;;;;;;5.24;85.68;101475.28;4986821;28;20041;-65
2022/12/04 11:16:39;;;;;;;10.80;6.25;;;;;;;5.37;85.57;101481.69;4984316;28;20056;-66
2022/12/04 11:19:23;;;;;;;16.30;6.75;;;;;;;5.33;85.38;101476.16;4984754;28;20042;-66
2022/12/04 11:21:49;;;;;;;15.80;5.03;;;;;;;5.30;85.77;101479.41;4984037;28;20034;-66
2022/12/04 11:24:21;;;;;;;12.45;5.85;;;;;;;5.22;85.72;101472.13;4993690;28;20255;-66
2022/12/04 11:26:47;;;;;;;12.60;6.25;;;;;;;5.24;86.31;101467.28;4975861;28;20038;-66
2022/12/04 11:29:17;;;;;;;14.23;6.13;;;;;;;5.11;86.39;101472.63;4982808;28;20752;-65
2022/12/04 11:31:48;;;;;;;14.10;6.03;;;;;;;5.15;85.94;101469.06;4981157;28;20631;-66
2022/12/04 11:34:20;;;;;;;19.55;6.75;;;;;;;5.25;86.24;101471.53;4983607;28;20034;-65
2022/12/04 11:36:50;;;;;;;;;;;;;;;5.24;86.48;101475.28;4981046;28;20042;-66
2022/12/04 11:39:28;;;;;;;9.55;4.60;;;;;;;5.25;85.85;101466.19;4991464;28;19973;-66
2022/12/04 11:42:15;;;;;;;16.00;5.72;;;;;;;5.29;85.71;101467.16;4990310;28;20027;-65
2022/12/04 11:44:51;;;;;;;11.32;5.03;;;;;;;5.32;85.83;101466.56;4973616;28;20047;-65
2022/12/04 11:47:19;;;;;;;10.18;4.90;;;;;;;5.35;86.29;101454.50;4977750;28;20042;-65
2022/12/04 11:49:56;;;;;;;11.90;4.93;;;;;;;5.35;86.24;101463.31;4992264;28;20044;-66
2022/12/04 11:52:31;;;;;;;16.70;6.32;;;;;;;5.42;85.74;101449.53;4992040;28;20038;-66
2022/12/04 11:55:16;;;;;;;11.60;5.57;;;;;;;5.46;85.27;101447.84;4975925;28;20042;-65